Time;durP1;ratioP1;P1;durP2;ratioP2;P2;SDS_P1;SDS_P2;PMS_P1;PMS_P2;Temp;Humidity;BMP_temperature;BMP_pressure;BME280_temperature;BME280_humidity;BME280_pressure;Samples;Min_cycle;Max_cycle;Signal;HPM_P1;HPM_P2
2022/08/16 00:01:12;;;;;;;6.85;4.78;;;;;;;;;;7313703;19;162826;-15
2022/08/16 00:03:47;;;;;;;6.65;4.63;;;;;;;;;;7314019;19;163191;-13
2022/08/16 00:06:18;;;;;;;6.05;4.38;;;;;;;;;;7314151;19;154489;-14
2022/08/16 00:08:50;;;;;;;7.93;5.13;;;;;;;;;;7313724;19;154250;-13
2022/08/16 00:11:21;;;;;;;7.93;4.32;;;;;;;;;;7313390;19;162280;-13
2022/08/16 00:13:53;;;;;;;6.95;4.38;;;;;;;;;;7312288;19;163234;-13
2022/08/16 00:16:28;;;;;;;7.53;4.30;;;;;;;;;;7313379;19;155013;-14
2022/08/16 00:19:07;;;;;;;7.75;4.63;;;;;;;;;;7311454;19;154283;-13
2022/08/16 00:21:42;;;;;;;7.65;4.07;;;;;;;;;;7312644;19;162700;-14
2022/08/16 00:24:18;;;;;;;6.03;4.32;;;;;;;;;;7311030;19;163563;-13
2022/08/16 00:26:50;;;;;;;6.82;4.88;;;;;;;;;;7312837;19;154970;-13
2022/08/16 00:29:22;;;;;;;10.90;4.72;;;;;;;;;;7311440;19;154137;-13
2022/08/16 00:31:54;;;;;;;6.70;4.53;;;;;;;;;;7312171;19;162668;-13
2022/08/16 00:34:32;;;;;;;7.25;4.93;;;;;;;;;;7311306;19;163259;-15
2022/08/16 00:37:06;;;;;;;5.72;4.38;;;;;;;;;;7311660;19;154484;-13
2022/08/16 00:39:38;;;;;;;6.47;4.45;;;;;;;;;;7311896;19;154117;-12
2022/08/16 00:42:09;;;;;;;7.72;4.72;;;;;;;;;;7312632;19;162191;-12
2022/08/16 00:44:41;;;;;;;10.30;3.95;;;;;;;;;;7311462;19;162779;-13
2022/08/16 00:47:18;;;;;;;6.78;4.47;;;;;;;;;;7312401;19;154643;-13
2022/08/16 00:49:52;;;;;;;5.95;4.30;;;;;;;;;;7311738;19;153979;-14
2022/08/16 00:52:26;;;;;;;9.60;4.75;;;;;;;;;;7312205;19;162718;-14
2022/08/16 00:55:00;;;;;;;7.20;4.68;;;;;;;;;;7308586;19;162887;-13
2022/08/16 00:57:33;;;;;;;8.88;4.35;;;;;;;;;;7312359;19;154512;-13
2022/08/16 01:00:06;;;;;;;10.10;4.50;;;;;;;;;;7310660;19;154096;-13
2022/08/16 01:02:37;;;;;;;9.90;5.32;;;;;;;;;;7311915;19;162291;-13
2022/08/16 01:05:12;;;;;;;10.77;5.07;;;;;;;;;;7311212;19;163382;-13
2022/08/16 01:07:46;;;;;;;10.55;4.88;;;;;;;;;;7314058;19;154497;-14
2022/08/16 01:10:18;;;;;;;6.78;5.78;;;;;;;;;;7310776;19;153480;-14
2022/08/16 01:12:50;;;;;;;9.82;4.72;;;;;;;;;;7309470;19;162743;-13
2022/08/16 01:15:23;;;;;;;11.48;5.22;;;;;;;;;;7309049;19;162827;-13
2022/08/16 01:17:56;;;;;;;8.48;4.85;;;;;;;;;;7308749;19;154970;-14
2022/08/16 01:20:33;;;;;;;11.90;5.97;;;;;;;;;;7309604;19;154011;-14
2022/08/16 01:23:12;;;;;;;9.02;5.00;;;;;;;;;;7310677;19;161889;-14
2022/08/16 01:25:52;;;;;;;7.45;5.28;;;;;;;;;;7311540;19;162699;-13
2022/08/16 01:28:26;;;;;;;16.08;5.40;;;;;;;;;;7310479;19;154853;-14
2022/08/16 01:31:00;;;;;;;9.55;5.05;;;;;;;;;;7308991;19;153690;-14
2022/08/16 01:33:32;;;;;;;6.68;4.63;;;;;;;;;;7311178;19;162314;-14
2022/08/16 01:36:08;;;;;;;8.93;5.13;;;;;;;;;;7308649;19;163402;-22
2022/08/16 01:38:42;;;;;;;9.07;5.50;;;;;;;;;;7309016;19;154564;-14
2022/08/16 01:41:20;;;;;;;8.50;4.90;;;;;;;;;;7311628;19;155310;-14
2022/08/16 01:43:54;;;;;;;9.50;5.20;;;;;;;;;;7311241;19;162668;-13
2022/08/16 01:46:32;;;;;;;9.98;5.40;;;;;;;;;;7308901;19;162468;-13
2022/08/16 01:49:11;;;;;;;6.78;4.53;;;;;;;;;;7308946;19;154733;-13
2022/08/16 01:51:45;;;;;;;8.00;5.32;;;;;;;;;;7310317;19;154267;-14
2022/08/16 01:54:21;;;;;;;7.88;5.38;;;;;;;;;;7307727;19;162909;-14
2022/08/16 01:56:57;;;;;;;6.53;4.93;;;;;;;;;;7311906;19;162912;-14
2022/08/16 01:59:30;;;;;;;5.97;4.68;;;;;;;;;;7308669;19;155099;-14
2022/08/16 02:02:01;;;;;;;8.17;5.10;;;;;;;;;;7309725;19;154607;-14
2022/08/16 02:04:36;;;;;;;9.95;5.28;;;;;;;;;;7312050;19;162629;-14
2022/08/16 02:07:08;;;;;;;7.82;4.88;;;;;;;;;;7308252;19;163530;-14
2022/08/16 02:09:40;;;;;;;;;;;;;;;;;;7311004;19;154470;-14
2022/08/16 02:12:15;;;;;;;6.75;4.53;;;;;;;;;;7308694;19;153731;-14
2022/08/16 02:14:46;;;;;;;6.57;5.13;;;;;;;;;;7309018;19;162859;-14
2022/08/16 02:17:17;;;;;;;6.95;5.07;;;;;;;;;;7309922;19;163394;-13
2022/08/16 02:19:50;;;;;;;11.40;4.68;;;;;;;;;;7310206;19;154533;-14
2022/08/16 02:22:24;;;;;;;7.53;4.57;;;;;;;;;;7310495;19;154671;-14
2022/08/16 02:24:55;;;;;;;6.15;4.43;;;;;;;;;;7309052;19;162316;-14
2022/08/16 02:27:29;;;;;;;5.90;4.85;;;;;;;;;;7307665;19;163320;-13
2022/08/16 02:30:00;;;;;;;6.15;4.70;;;;;;;;;;7309804;19;154552;-14
2022/08/16 02:32:33;;;;;;;9.88;4.90;;;;;;;;;;7309456;19;153987;-14
2022/08/16 02:35:05;;;;;;;5.47;4.50;;;;;;;;;;7314700;19;162281;-14
2022/08/16 02:37:36;;;;;;;7.55;4.50;;;;;;;;;;7316295;19;162421;-14
2022/08/16 02:40:09;;;;;;;8.60;4.67;;;;;;;;;;7315070;19;154482;-14
2022/08/16 02:42:43;;;;;;;;;;;;;;;;;;7317206;19;154343;-14
2022/08/16 02:45:14;;;;;;;7.05;4.32;;;;;;;;;;7315098;19;162462;-14
2022/08/16 02:47:46;;;;;;;5.00;4.30;;;;;;;;;;7314154;19;162848;-14
2022/08/16 02:50:18;;;;;;;7.05;4.88;;;;;;;;;;7316559;19;154711;-14
2022/08/16 02:52:50;;;;;;;6.50;4.68;;;;;;;;;;7315747;19;153958;-14
2022/08/16 02:55:22;;;;;;;4.90;4.32;;;;;;;;;;7313009;19;162756;-13
2022/08/16 02:57:56;;;;;;;7.82;4.75;;;;;;;;;;7315607;19;163406;-14
2022/08/16 03:00:28;;;;;;;5.30;4.68;;;;;;;;;;7314949;19;154460;-14
2022/08/16 03:02:59;;;;;;;6.90;4.93;;;;;;;;;;7315649;19;154048;-14
2022/08/16 03:05:31;;;;;;;5.07;4.40;;;;;;;;;;7315525;19;162334;-13
2022/08/16 03:08:04;;;;;;;5.95;4.70;;;;;;;;;;7314171;19;165077;-13
2022/08/16 03:10:43;;;;;;;6.60;3.92;;;;;;;;;;7315793;19;154458;-14
2022/08/16 03:13:23;;;;;;;6.53;4.70;;;;;;;;;;7314400;19;154462;-14
2022/08/16 03:15:55;;;;;;;5.50;4.85;;;;;;;;;;7314999;19;162763;-14
2022/08/16 03:18:27;;;;;;;5.50;4.57;;;;;;;;;;7312968;19;163963;-14
2022/08/16 03:20:58;;;;;;;6.40;4.60;;;;;;;;;;7315725;19;154838;-13
2022/08/16 03:23:29;;;;;;;6.05;4.43;;;;;;;;;;7314072;19;154146;-14
2022/08/16 03:26:05;;;;;;;7.00;4.80;;;;;;;;;;7313745;19;162867;-13
2022/08/16 03:28:41;;;;;;;5.60;4.90;;;;;;;;;;7312569;19;163434;-14
2022/08/16 03:31:15;;;;;;;5.70;4.50;;;;;;;;;;7315003;19;154563;-13
2022/08/16 03:33:46;;;;;;;6.60;4.60;;;;;;;;;;7313980;19;154755;-14
2022/08/16 03:36:17;;;;;;;5.50;4.45;;;;;;;;;;7312080;19;162247;-14
2022/08/16 03:38:50;;;;;;;7.70;4.35;;;;;;;;;;7313371;19;163364;-14
2022/08/16 03:41:22;;;;;;;8.33;4.67;;;;;;;;;;7313544;19;155449;-14
2022/08/16 03:43:56;;;;;;;5.40;4.22;;;;;;;;;;7312293;19;153955;-14
2022/08/16 03:46:31;;;;;;;6.78;4.82;;;;;;;;;;7313001;19;162356;-14
2022/08/16 03:49:03;;;;;;;4.70;4.00;;;;;;;;;;7312924;19;163327;-14
2022/08/16 03:51:34;;;;;;;5.88;4.72;;;;;;;;;;7313893;19;154504;-14
2022/08/16 03:54:08;;;;;;;5.03;4.53;;;;;;;;;;7312932;19;154570;-17
2022/08/16 03:56:39;;;;;;;5.82;4.40;;;;;;;;;;7313095;19;162712;-13
2022/08/16 03:59:13;;;;;;;5.30;4.43;;;;;;;;;;7314230;19;162785;-13
2022/08/16 04:01:50;;;;;;;6.18;4.40;;;;;;;;;;7312856;19;154457;-13
2022/08/16 04:04:22;;;;;;;4.63;4.15;;;;;;;;;;7312766;19;154121;-13
2022/08/16 04:06:53;;;;;;;5.10;4.53;;;;;;;;;;7312511;19;162490;-13
2022/08/16 04:09:26;;;;;;;4.72;4.22;;;;;;;;;;7313203;19;162855;-13
2022/08/16 04:11:57;;;;;;;5.70;4.10;;;;;;;;;;7314442;19;154487;-13
2022/08/16 04:14:31;;;;;;;6.40;4.05;;;;;;;;;;7312533;19;153996;-13
2022/08/16 04:17:04;;;;;;;5.35;4.13;;;;;;;;;;7310623;19;162628;-13
2022/08/16 04:19:38;;;;;;;4.93;4.40;;;;;;;;;;7311864;19;162894;-13
2022/08/16 04:22:10;;;;;;;5.47;4.45;;;;;;;;;;7312368;19;154912;-13
2022/08/16 04:24:50;;;;;;;5.15;4.60;;;;;;;;;;7312216;19;154652;-21
2022/08/16 04:27:22;;;;;;;5.55;3.78;;;;;;;;;;7310508;19;162236;-15
2022/08/16 04:29:56;;;;;;;4.40;3.83;;;;;;;;;;7311851;19;162769;-13
2022/08/16 04:32:27;;;;;;;6.40;5.10;;;;;;;;;;7312122;19;155403;-14
2022/08/16 04:34:59;;;;;;;4.90;4.00;;;;;;;;;;7313513;19;154311;-14
2022/08/16 04:37:33;;;;;;;5.07;3.90;;;;;;;;;;7309717;19;161816;-14
2022/08/16 04:40:14;;;;;;;4.95;4.45;;;;;;;;;;7311557;19;163033;-14
2022/08/16 04:42:46;;;;;;;4.53;4.13;;;;;;;;;;7311974;19;154568;-14
2022/08/16 04:45:23;;;;;;;6.35;4.40;;;;;;;;;;7311753;19;154388;-14
2022/08/16 04:47:55;;;;;;;4.95;3.95;;;;;;;;;;7311227;19;162234;-14
2022/08/16 04:50:28;;;;;;;5.20;4.00;;;;;;;;;;7311665;19;163377;-14
2022/08/16 04:53:17;;;;;;;7.20;4.63;;;;;;;;;;7311402;19;154488;-13
2022/08/16 04:55:49;;;;;;;5.03;4.20;;;;;;;;;;7309254;19;153968;-14
2022/08/16 04:58:20;;;;;;;6.80;4.35;;;;;;;;;;7309809;19;162263;-14
2022/08/16 05:00:54;;;;;;;7.78;4.18;;;;;;;;;;7310988;19;163463;-15
2022/08/16 05:03:26;;;;;;;4.63;4.18;;;;;;;;;;7311622;19;154533;-14
2022/08/16 05:05:57;;;;;;;4.97;4.18;;;;;;;;;;7310956;19;154011;-14
2022/08/16 05:08:32;;;;;;;7.40;4.68;;;;;;;;;;7310573;19;162200;-13
2022/08/16 05:11:10;;;;;;;6.32;4.10;;;;;;;;;;7310298;19;162883;-14
2022/08/16 05:13:44;;;;;;;4.63;4.22;;;;;;;;;;7310989;19;154482;-14
2022/08/16 05:16:28;;;;;;;6.00;4.00;;;;;;;;;;7310824;19;154021;-14
2022/08/16 05:19:18;;;;;;;4.57;4.18;;;;;;;;;;7310000;19;162606;-14
2022/08/16 05:22:15;;;;;;;4.03;3.72;;;;;;;;;;7310046;19;162905;-14
2022/08/16 05:24:48;;;;;;;6.03;4.63;;;;;;;;;;7310459;19;154884;-14
2022/08/16 05:27:19;;;;;;;8.80;4.82;;;;;;;;;;7311031;19;153978;-14
2022/08/16 05:29:50;;;;;;;6.00;4.18;;;;;;;;;;7311475;19;162319;-14
2022/08/16 05:32:25;;;;;;;7.45;4.65;;;;;;;;;;7310162;19;162866;-15
2022/08/16 05:34:57;;;;;;;7.93;5.07;;;;;;;;;;7309110;19;154409;-14
2022/08/16 05:37:28;;;;;;;7.30;5.07;;;;;;;;;;7310757;19;153914;-14
2022/08/16 05:40:00;;;;;;;10.10;4.90;;;;;;;;;;7309860;19;162175;-14
2022/08/16 05:42:31;;;;;;;8.20;4.93;;;;;;;;;;7310009;19;162337;-14
2022/08/16 05:45:03;;;;;;;12.68;5.63;;;;;;;;;;7311659;19;154419;-14
2022/08/16 05:47:37;;;;;;;12.45;5.88;;;;;;;;;;7309204;19;154118;-14
2022/08/16 05:50:09;;;;;;;10.68;5.53;;;;;;;;;;7308547;19;162324;-14
2022/08/16 05:52:41;;;;;;;13.45;6.38;;;;;;;;;;7308785;19;163559;-14
2022/08/16 05:55:13;;;;;;;12.63;6.07;;;;;;;;;;7308906;19;154833;-14
2022/08/16 05:57:44;;;;;;;18.20;6.68;;;;;;;;;;7303332;19;154142;-14
2022/08/16 06:00:16;;;;;;;17.83;6.65;;;;;;;;;;7306218;19;163278;-14
2022/08/16 06:02:56;;;;;;;27.02;8.23;;;;;;;;;;7309024;19;162425;-15
2022/08/16 06:06:00;;;;;;;35.75;10.32;;;;;;;;;;7309954;19;155101;-14
2022/08/16 06:08:33;;;;;;;39.80;9.25;;;;;;;;;;7313648;19;154112;-14
2022/08/16 06:11:06;;;;;;;;;;;;;;;;;;7316309;19;162694;-14
2022/08/16 06:13:38;;;;;;;19.42;8.57;;;;;;;;;;7315423;19;163512;-14
2022/08/16 06:16:09;;;;;;;22.27;8.70;;;;;;;;;;7317602;19;154526;-15
2022/08/16 06:18:46;;;;;;;26.73;7.88;;;;;;;;;;7314169;19;154161;-16
2022/08/16 06:21:17;;;;;;;31.55;8.73;;;;;;;;;;7315405;19;162516;-13
2022/08/16 06:23:49;;;;;;;23.90;8.85;;;;;;;;;;7315171;19;162850;-15
2022/08/16 06:26:21;;;;;;;26.05;8.07;;;;;;;;;;7315752;19;154617;-15
2022/08/16 06:28:53;;;;;;;23.90;8.02;;;;;;;;;;7312949;19;154071;-15
2022/08/16 06:31:30;;;;;;;20.90;7.75;;;;;;;;;;7315088;19;163296;-15
2022/08/16 06:34:04;;;;;;;22.23;7.55;;;;;;;;;;7316303;19;163211;-14
2022/08/16 06:36:38;;;;;;;20.23;7.35;;;;;;;;;;7314868;19;155082;-15
2022/08/16 06:39:22;;;;;;;18.95;7.20;;;;;;;;;;7313545;19;154053;-14
2022/08/16 06:42:03;;;;;;;19.20;7.65;;;;;;;;;;7314775;19;162915;-16
2022/08/16 06:44:55;;;;;;;20.65;7.80;;;;;;;;;;7314625;19;165395;-15
2022/08/16 06:47:51;;;;;;;15.95;6.95;;;;;;;;;;7314898;19;154635;-14
2022/08/16 06:50:28;;;;;;;17.13;6.53;;;;;;;;;;7315356;19;153987;-15
2022/08/16 06:53:08;;;;;;;16.88;6.80;;;;;;;;;;7313897;19;162852;-14
2022/08/16 06:55:49;;;;;;;13.43;6.90;;;;;;;;;;7314340;19;162694;-26
2022/08/16 06:58:21;;;;;;;13.52;6.97;;;;;;;;;;7314094;19;154695;-13
2022/08/16 07:01:02;;;;;;;17.83;6.57;;;;;;;;;;7316049;19;154045;-14
2022/08/16 07:03:35;;;;;;;15.85;6.47;;;;;;;;;;7313830;19;162192;-14
2022/08/16 07:06:11;;;;;;;13.07;6.30;;;;;;;;;;7313836;19;162951;-14
2022/08/16 07:08:46;;;;;;;13.00;5.80;;;;;;;;;;7314333;19;154566;-14
2022/08/16 07:11:19;;;;;;;18.70;6.65;;;;;;;;;;7315662;19;154089;-14
2022/08/16 07:13:51;;;;;;;10.25;5.75;;;;;;;;;;7313492;19;162235;-14
2022/08/16 07:16:25;;;;;;;19.00;5.63;;;;;;;;;;7313611;19;162798;-15
2022/08/16 07:18:58;;;;;;;23.50;6.30;;;;;;;;;;7311267;19;154047;-15
2022/08/16 07:21:33;;;;;;;15.90;6.70;;;;;;;;;;7313907;19;153594;-15
2022/08/16 07:24:06;;;;;;;14.45;6.28;;;;;;;;;;7313498;19;162402;-15
2022/08/16 07:26:40;;;;;;;12.05;6.07;;;;;;;;;;7312421;19;162805;-14
2022/08/16 07:29:12;;;;;;;11.15;5.35;;;;;;;;;;7313962;19;154551;-15
2022/08/16 07:31:45;;;;;;;14.55;5.50;;;;;;;;;;7313852;19;154129;-15
2022/08/16 07:34:17;;;;;;;14.15;5.38;;;;;;;;;;7313407;19;162317;-15
2022/08/16 07:36:51;;;;;;;9.30;5.72;;;;;;;;;;7312971;19;163297;-14
2022/08/16 07:39:22;;;;;;;12.60;5.63;;;;;;;;;;7313756;19;154892;-15
2022/08/16 07:41:54;;;;;;;12.07;5.22;;;;;;;;;;7313403;19;153997;-15
2022/08/16 07:44:26;;;;;;;11.85;4.78;;;;;;;;;;7314391;19;162269;-15
2022/08/16 07:46:58;;;;;;;13.75;5.25;;;;;;;;;;7312859;19;163089;-14
2022/08/16 07:49:29;;;;;;;12.30;5.25;;;;;;;;;;7314755;19;155120;-15
2022/08/16 07:52:03;;;;;;;14.13;4.70;;;;;;;;;;7313233;19;154031;-15
2022/08/16 07:54:35;;;;;;;11.18;5.00;;;;;;;;;;7312615;19;162797;-14
2022/08/16 07:57:10;;;;;;;9.70;4.82;;;;;;;;;;7312308;19;162776;-15
2022/08/16 07:59:43;;;;;;;9.68;5.22;;;;;;;;;;7311166;19;154633;-15
2022/08/16 08:02:15;;;;;;;9.27;4.60;;;;;;;;;;7312655;19;154309;-15
2022/08/16 08:04:47;;;;;;;10.50;4.90;;;;;;;;;;7312583;19;162783;-15
2022/08/16 08:07:21;;;;;;;11.48;5.22;;;;;;;;;;7312293;19;163276;-15
2022/08/16 08:09:54;;;;;;;10.93;5.18;;;;;;;;;;7312754;19;154451;-15
2022/08/16 08:12:27;;;;;;;7.22;4.35;;;;;;;;;;7312185;19;154377;-15
2022/08/16 08:14:59;;;;;;;8.32;4.18;;;;;;;;;;7313355;19;162357;-15
2022/08/16 08:17:30;;;;;;;11.40;4.47;;;;;;;;;;7312235;19;162936;-14
2022/08/16 08:20:03;;;;;;;13.98;4.75;;;;;;;;;;7310783;19;154487;-14
2022/08/16 08:22:38;;;;;;;7.88;4.70;;;;;;;;;;7312229;19;154080;-14
2022/08/16 08:25:15;;;;;;;10.15;4.30;;;;;;;;;;7311720;19;162262;-14
2022/08/16 08:27:46;;;;;;;7.28;3.97;;;;;;;;;;7311864;19;162355;-15
2022/08/16 08:30:20;;;;;;;10.57;4.35;;;;;;;;;;7311403;19;154446;-15
2022/08/16 08:32:52;;;;;;;7.22;3.72;;;;;;;;;;7311851;19;154023;-15
2022/08/16 08:35:26;;;;;;;9.20;3.88;;;;;;;;;;7311005;19;162389;-14
2022/08/16 08:38:01;;;;;;;6.85;3.70;;;;;;;;;;7311106;19;162849;-14
2022/08/16 08:40:37;;;;;;;9.15;4.53;;;;;;;;;;7311269;19;154961;-16
2022/08/16 08:43:11;;;;;;;11.48;4.07;;;;;;;;;;7312518;19;154621;-15
2022/08/16 08:45:48;;;;;;;7.57;3.70;;;;;;;;;;7310898;19;162926;-14
2022/08/16 08:48:23;;;;;;;7.50;4.07;;;;;;;;;;7311251;19;162894;-14
2022/08/16 08:50:55;;;;;;;8.55;3.42;;;;;;;;;;7313218;19;155078;-15
2022/08/16 08:53:31;;;;;;;9.65;4.07;;;;;;;;;;7311076;19;154350;-14
2022/08/16 08:56:02;;;;;;;7.63;3.30;;;;;;;;;;7310297;19;162644;-15
2022/08/16 08:58:35;;;;;;;8.93;3.75;;;;;;;;;;7310910;19;162853;-14
2022/08/16 09:01:25;;;;;;;7.45;3.50;;;;;;;;;;7308017;19;154505;-14
2022/08/16 09:03:56;;;;;;;9.38;3.92;;;;;;;;;;7312454;19;154092;-14
2022/08/16 09:06:30;;;;;;;8.07;4.03;;;;;;;;;;7310408;19;162291;-14
2022/08/16 09:09:05;;;;;;;6.45;3.15;;;;;;;;;;7310098;19;163262;-14
2022/08/16 09:11:36;;;;;;;8.13;4.15;;;;;;;;;;7310542;19;154497;-14
2022/08/16 09:14:07;;;;;;;6.85;3.45;;;;;;;;;;7310608;19;154308;-14
2022/08/16 09:16:40;;;;;;;13.10;3.63;;;;;;;;;;7310146;19;162227;-14
2022/08/16 09:19:11;;;;;;;8.07;3.33;;;;;;;;;;7310299;19;162853;-14
2022/08/16 09:21:43;;;;;;;9.77;3.20;;;;;;;;;;7310150;19;154847;-14
2022/08/16 09:24:18;;;;;;;8.77;3.05;;;;;;;;;;7307953;19;153981;-14
2022/08/16 09:26:50;;;;;;;7.07;3.30;;;;;;;;;;7307249;19;162367;-14
2022/08/16 09:29:22;;;;;;;6.80;3.28;;;;;;;;;;7307942;19;162801;-14
2022/08/16 09:31:54;;;;;;;4.78;3.30;;;;;;;;;;7308131;19;154536;-14
2022/08/16 09:34:25;;;;;;;5.78;3.40;;;;;;;;;;7307776;19;153992;-14
2022/08/16 09:36:58;;;;;;;5.85;3.15;;;;;;;;;;7307480;19;162846;-14
2022/08/16 09:39:31;;;;;;;;;;;;;;;;;;7308363;19;163084;-14
2022/08/16 09:42:03;;;;;;;;;;;;;;;;;;7307377;19;155743;-14
2022/08/16 09:44:36;;;;;;;7.40;3.45;;;;;;;;;;7307877;19;154386;-14
2022/08/16 09:47:08;;;;;;;7.18;2.90;;;;;;;;;;7307047;19;162366;-14
2022/08/16 09:49:40;;;;;;;4.28;2.67;;;;;;;;;;7307302;19;162916;-15
2022/08/16 09:52:12;;;;;;;8.73;3.13;;;;;;;;;;7307280;19;154608;-14
2022/08/16 09:54:46;;;;;;;5.17;3.00;;;;;;;;;;7307990;19;154054;-14
2022/08/16 09:57:17;;;;;;;5.80;3.10;;;;;;;;;;7310628;19;162360;-14
2022/08/16 09:59:48;;;;;;;8.43;3.42;;;;;;;;;;7310232;19;162851;-14
2022/08/16 10:02:19;;;;;;;3.92;3.10;;;;;;;;;;7310859;19;154387;-15
2022/08/16 10:04:51;;;;;;;7.15;2.88;;;;;;;;;;7310426;19;154011;-14
2022/08/16 10:07:22;;;;;;;5.45;3.05;;;;;;;;;;7310338;19;162690;-14
2022/08/16 10:09:56;;;;;;;7.82;3.47;;;;;;;;;;7309996;19;162938;-15
2022/08/16 10:15:14;;;;;;;4.85;3.08;;;;;;;;;;7308644;19;153969;-15
2022/08/16 10:17:47;;;;;;;8.80;3.15;;;;;;;;;;7309699;19;162277;-15
2022/08/16 10:20:18;;;;;;;3.60;2.88;;;;;;;;;;7307659;19;163401;-15
2022/08/16 10:22:49;;;;;;;5.43;2.88;;;;;;;;;;7310368;19;154451;-15
2022/08/16 10:25:26;;;;;;;7.82;3.75;;;;;;;;;;7310229;19;154638;-15
2022/08/16 10:27:59;;;;;;;6.07;3.20;;;;;;;;;;7306544;19;162716;-15
2022/08/16 10:30:42;;;;;;;5.45;2.75;;;;;;;;;;7309459;19;163335;-15
2022/08/16 10:33:15;;;;;;;6.85;2.38;;;;;;;;;;7309747;19;154524;-14
2022/08/16 10:35:47;;;;;;;3.83;1.83;;;;;;;;;;7309713;19;154199;-15
2022/08/16 10:38:18;;;;;;;3.30;1.67;;;;;;;;;;7309172;19;161811;-15
2022/08/16 10:40:53;;;;;;;9.52;2.70;;;;;;;;;;7305832;19;162909;-15
2022/08/16 10:43:24;;;;;;;5.22;2.35;;;;;;;;;;7309866;19;154440;-15
2022/08/16 10:45:56;;;;;;;6.53;2.72;;;;;;;;;;7309168;19;154012;-15
2022/08/16 10:48:27;;;;;;;4.60;2.55;;;;;;;;;;7308753;19;162740;-14
2022/08/16 10:50:59;;;;;;;3.80;2.35;;;;;;;;;;7308555;19;162828;-15
2022/08/16 10:53:31;;;;;;;5.37;2.30;;;;;;;;;;7309112;19;154841;-15
2022/08/16 10:56:07;;;;;;;;;;;;;;;;;;7314908;19;157129;-15
2022/08/16 10:58:39;;;;;;;6.15;2.60;;;;;;;;;;7315627;19;162427;-15
2022/08/16 11:01:15;;;;;;;6.28;2.50;;;;;;;;;;7314594;19;163172;-15
2022/08/16 11:04:02;;;;;;;5.95;2.30;;;;;;;;;;7315952;19;154494;-15
2022/08/16 11:06:33;;;;;;;3.65;2.40;;;;;;;;;;7314104;19;154137;-15
2022/08/16 11:09:05;;;;;;;6.13;2.58;;;;;;;;;;7315290;19;162307;-15
2022/08/16 11:11:56;;;;;;;6.20;2.40;;;;;;;;;;7314804;19;163223;-15
2022/08/16 11:14:44;;;;;;;2.50;2.00;;;;;;;;;;7314623;19;154595;-15
2022/08/16 11:17:35;;;;;;;5.50;2.47;;;;;;;;;;7315132;19;154627;-15
2022/08/16 11:20:16;;;;;;;4.85;2.33;;;;;;;;;;7315439;19;162704;-15
2022/08/16 11:23:07;;;;;;;5.40;2.35;;;;;;;;;;7313518;19;162905;-15
2022/08/16 11:25:39;;;;;;;6.25;2.42;;;;;;;;;;7315359;19;154411;-15
2022/08/16 11:28:34;;;;;;;5.13;2.35;;;;;;;;;;7311388;19;154049;-15
2022/08/16 11:31:26;;;;;;;3.30;1.95;;;;;;;;;;7313005;19;162273;-15
2022/08/16 11:33:57;;;;;;;5.60;2.10;;;;;;;;;;7314615;19;162765;-14
2022/08/16 11:36:29;;;;;;;3.05;2.25;;;;;;;;;;7313182;19;154831;-15
2022/08/16 11:39:01;;;;;;;4.47;2.05;;;;;;;;;;7315006;19;154517;-15
2022/08/16 11:41:34;;;;;;;3.55;2.38;;;;;;;;;;7312491;19;162828;-14
2022/08/16 11:44:10;;;;;;;7.15;2.40;;;;;;;;;;7312906;19;162867;-14
2022/08/16 11:46:41;;;;;;;4.03;2.10;;;;;;;;;;7314756;19;154973;-14
2022/08/16 11:49:16;;;;;;;5.55;2.45;;;;;;;;;;7314461;19;154309;-14
2022/08/16 11:51:50;;;;;;;4.57;2.33;;;;;;;;;;7314560;19;162265;-13
2022/08/16 11:54:22;;;;;;;3.80;2.20;;;;;;;;;;7314069;19;162862;-16
2022/08/16 11:56:54;;;;;;;4.00;1.85;;;;;;;;;;7314704;19;154966;-16
2022/08/16 11:59:28;;;;;;;7.07;2.00;;;;;;;;;;7314085;19;153976;-15
2022/08/16 12:02:00;;;;;;;6.95;2.45;;;;;;;;;;7311397;19;162267;-15
2022/08/16 12:04:32;;;;;;;6.47;2.05;;;;;;;;;;7313901;19;163320;-15
2022/08/16 12:07:06;;;;;;;3.78;2.13;;;;;;;;;;7312915;19;154425;-15
2022/08/16 12:09:38;;;;;;;3.67;2.17;;;;;;;;;;7313782;19;154641;-15
2022/08/16 12:12:12;;;;;;;4.90;2.03;;;;;;;;;;7313604;19;162754;-14
2022/08/16 12:14:46;;;;;;;4.70;2.45;;;;;;;;;;7313706;19;162858;-15
2022/08/16 12:17:18;;;;;;;3.80;2.00;;;;;;;;;;7313856;19;154846;-14
2022/08/16 12:19:49;;;;;;;3.03;2.00;;;;;;;;;;7314320;19;154003;-15
2022/08/16 12:22:21;;;;;;;5.57;2.00;;;;;;;;;;7312200;19;162252;-15
2022/08/16 12:24:53;;;;;;;4.85;1.90;;;;;;;;;;7313313;19;162941;-14
2022/08/16 12:27:25;;;;;;;2.88;2.42;;;;;;;;;;7312443;19;154575;-15
2022/08/16 12:29:59;;;;;;;3.97;2.33;;;;;;;;;;7313629;19;154493;-14
2022/08/16 12:32:30;;;;;;;2.83;1.75;;;;;;;;;;7313202;19;162852;-15
2022/08/16 12:35:03;;;;;;;4.47;1.90;;;;;;;;;;7312692;19;163404;-15
2022/08/16 12:37:35;;;;;;;4.35;2.17;;;;;;;;;;7313531;19;155024;-15
2022/08/16 12:40:09;;;;;;;2.90;2.10;;;;;;;;;;7313303;19;154678;-14
2022/08/16 12:42:40;;;;;;;3.13;2.20;;;;;;;;;;7310895;19;162252;-14
2022/08/16 12:45:16;;;;;;;3.80;1.85;;;;;;;;;;7311969;19;163768;-14
2022/08/16 12:50:45;;;;;;;5.72;2.28;;;;;;;;;;7311423;19;154023;-16
2022/08/16 12:53:19;;;;;;;3.55;1.85;;;;;;;;;;7311370;19;161832;-16
2022/08/16 12:55:51;;;;;;;5.25;1.85;;;;;;;;;;7311874;19;163214;-15
2022/08/16 12:58:23;;;;;;;3.58;2.30;;;;;;;;;;7312352;19;154499;-15
2022/08/16 13:00:57;;;;;;;3.30;2.15;;;;;;;;;;7312070;19;153939;-16
2022/08/16 13:03:29;;;;;;;3.78;1.90;;;;;;;;;;7310195;19;162274;-15
2022/08/16 13:06:00;;;;;;;2.35;1.70;;;;;;;;;;7311246;19;162316;-15
2022/08/16 13:08:34;;;;;;;4.45;1.98;;;;;;;;;;7311649;19;155871;-16
2022/08/16 13:11:06;;;;;;;5.47;1.98;;;;;;;;;;7311944;19;154299;-14
2022/08/16 13:13:37;;;;;;;3.87;1.93;;;;;;;;;;7311285;19;162659;-14
2022/08/16 13:16:11;;;;;;;3.72;1.70;;;;;;;;;;7311800;19;162946;-14
2022/08/16 13:18:43;;;;;;;1.42;0.80;;;;;;;;;;7309571;19;155704;-15
2022/08/16 13:21:14;;;;;;;0.90;0.70;;;;;;;;;;7311917;19;154038;-14
2022/08/16 13:23:45;;;;;;;50.38;17.35;;;;;;;;;;7309321;19;162614;-14
2022/08/16 13:26:17;;;;;;;122.32;39.17;;;;;;;;;;7311289;19;162978;-13
2022/08/16 13:28:48;;;;;;;86.20;28.27;;;;;;;;;;7306843;19;154930;-15
2022/08/16 13:31:22;;;;;;;63.72;23.55;;;;;;;;;;7309399;19;154412;-15
2022/08/16 13:33:53;;;;;;;31.52;12.23;;;;;;;;;;7309957;19;162709;-15
2022/08/16 13:36:25;;;;;;;36.90;13.23;;;;;;;;;;7310341;19;163232;-14
2022/08/16 13:39:08;;;;;;;39.67;13.85;;;;;;;;;;7309675;19;154757;-15
2022/08/16 13:41:40;;;;;;;48.97;15.40;;;;;;;;;;7309546;19;154471;-15
2022/08/16 13:44:11;;;;;;;46.15;16.02;;;;;;;;;;7308317;19;162379;-14
2022/08/16 13:46:46;;;;;;;42.33;15.57;;;;;;;;;;7309254;19;162865;-15
2022/08/16 13:49:17;;;;;;;44.35;14.90;;;;;;;;;;7310948;19;154827;-15
2022/08/16 13:51:48;;;;;;;47.75;13.88;;;;;;;;;;7310636;19;154057;-15
2022/08/16 13:54:20;;;;;;;47.15;15.27;;;;;;;;;;7310277;19;162894;-15
2022/08/16 13:56:51;;;;;;;39.33;13.40;;;;;;;;;;7310112;19;162744;-14
2022/08/16 13:59:22;;;;;;;42.58;13.50;;;;;;;;;;7310740;19;154452;-15
2022/08/16 14:01:59;;;;;;;23.45;10.73;;;;;;;;;;7310565;19;154315;-15
2022/08/16 14:04:35;;;;;;;43.15;13.45;;;;;;;;;;7307621;19;162349;-15
2022/08/16 14:07:10;;;;;;;32.60;12.50;;;;;;;;;;7306928;19;163364;-15
2022/08/16 14:09:43;;;;;;;32.80;12.63;;;;;;;;;;7310138;19;154458;-14
2022/08/16 14:12:23;;;;;;;32.83;12.20;;;;;;;;;;7310224;19;154041;-14
2022/08/16 14:14:54;;;;;;;35.88;12.80;;;;;;;;;;7309636;19;161868;-14
2022/08/16 14:17:30;;;;;;;42.27;12.30;;;;;;;;;;7308125;19;162867;-14
2022/08/16 14:20:01;;;;;;;34.80;11.05;;;;;;;;;;7310141;19;155009;-13
2022/08/16 14:22:36;;;;;;;33.58;12.57;;;;;;;;;;7308276;19;153674;-14
2022/08/16 14:25:12;;;;;;;37.78;12.35;;;;;;;;;;7307694;19;162674;-14
2022/08/16 14:27:43;;;;;;;30.20;10.88;;;;;;;;;;7308061;19;162875;-13
2022/08/16 14:30:19;;;;;;;30.67;11.25;;;;;;;;;;7314761;19;155192;-14
2022/08/16 14:32:54;;;;;;;30.40;10.07;;;;;;;;;;7316829;19;154463;-14
2022/08/16 14:35:27;;;;;;;34.55;11.27;;;;;;;;;;7315956;19;162189;-13
2022/08/16 14:37:59;;;;;;;31.83;11.05;;;;;;;;;;7316128;19;162808;-14
2022/08/16 14:40:31;;;;;;;34.47;11.85;;;;;;;;;;7316579;19;154407;-14
2022/08/16 14:43:02;;;;;;;36.40;12.23;;;;;;;;;;7315808;19;154109;-14
2022/08/16 14:45:34;;;;;;;33.50;11.48;;;;;;;;;;7314495;19;162266;-14
2022/08/16 14:48:08;;;;;;;26.10;10.93;;;;;;;;;;7316136;19;163475;-14
2022/08/16 14:50:39;;;;;;;34.08;10.68;;;;;;;;;;7314614;19;154458;-14
2022/08/16 14:53:12;;;;;;;13.48;4.53;;;;;;;;;;7316181;19;154231;-14
2022/08/16 14:55:42;;;;;;;;;;;;;;;;;;7316372;19;162207;-14
2022/08/16 14:58:14;;;;;;;11.07;3.70;;;;;;;;;;7316136;19;162903;-14
2022/08/16 15:00:45;;;;;;;13.40;4.32;;;;;;;;;;7316023;19;153963;-14
2022/08/16 15:03:22;;;;;;;11.35;4.32;;;;;;;;;;7315657;19;154029;-14
2022/08/16 15:05:53;;;;;;;17.10;4.25;;;;;;;;;;7314938;19;162355;-14
2022/08/16 15:08:24;;;;;;;11.05;3.88;;;;;;;;;;7315201;19;162800;-14
2022/08/16 15:10:55;;;;;;;11.52;4.53;;;;;;;;;;7315866;19;154427;-14